createdAt,value
2022-10-28T00:00:46.573Z,12.55
2022-10-28T00:01:48.283Z,12.49
2022-10-28T00:02:50.114Z,12.52
2022-10-28T00:03:54.675Z,12.45
2022-10-28T00:04:56.321Z,12.38
2022-10-28T00:06:05.848Z,12.36
2022-10-28T00:07:07.515Z,12.39
2022-10-28T00:08:09.533Z,12.44
2022-10-28T00:09:12.280Z,12.38
2022-10-28T00:10:14.195Z,12.43
2022-10-28T00:11:19.453Z,12.41
2022-10-28T00:12:21.116Z,12.45
2022-10-28T00:13:22.770Z,12.44
2022-10-28T00:14:24.415Z,12.41
2022-10-28T00:15:26.202Z,12.46
2022-10-28T00:16:30.999Z,12.48
2022-10-28T00:17:32.751Z,12.50
2022-10-28T00:18:34.431Z,12.50
2022-10-28T00:19:36.092Z,12.45
2022-10-28T00:20:37.780Z,12.44
2022-10-28T00:21:41.777Z,12.46
2022-10-28T00:22:43.764Z,12.42
2022-10-28T00:23:45.847Z,12.46
2022-10-28T00:24:47.492Z,12.50
2022-10-28T00:25:49.138Z,12.45
2022-10-28T00:26:50.849Z,12.37
2022-10-28T00:27:53.062Z,12.40
2022-10-28T00:29:00.429Z,12.39
2022-10-28T00:30:02.287Z,12.46
2022-10-28T00:31:08.551Z,12.59
2022-10-28T00:32:10.202Z,12.60
2022-10-28T00:33:11.899Z,12.68
2022-10-28T00:34:16.090Z,12.70
2022-10-28T00:35:17.749Z,12.70
2022-10-28T00:36:22.502Z,12.68
2022-10-28T00:37:24.412Z,12.75
2022-10-28T00:38:26.046Z,12.80
2022-10-28T00:39:28.132Z,12.83
2022-10-28T00:40:34.763Z,12.87
2022-10-28T00:41:39.243Z,12.82
2022-10-28T00:42:40.919Z,12.77
2022-10-28T00:43:46.800Z,12.78
2022-10-28T00:45:09.252Z,12.79
2022-10-28T00:46:42.705Z,12.91
2022-10-28T00:48:02.300Z,12.97
2022-10-28T00:49:11.005Z,13.05
2022-10-28T00:50:24.559Z,13.09
2022-10-28T00:51:27.852Z,13.07
2022-10-28T00:52:31.812Z,13.14
2022-10-28T00:53:33.858Z,13.15
2022-10-28T00:54:37.952Z,13.15
2022-10-28T00:55:40.278Z,13.07
2022-10-28T00:56:47.018Z,13.12
2022-10-28T00:57:49.918Z,13.15
2022-10-28T00:58:55.343Z,13.11
2022-10-28T00:59:58.565Z,13.13
2022-10-28T01:01:00.684Z,13.20
2022-10-28T01:02:02.824Z,13.24
2022-10-28T01:03:04.707Z,13.26
2022-10-28T01:04:07.535Z,13.22
2022-10-28T01:05:11.058Z,13.22
2022-10-28T01:06:14.385Z,13.29
2022-10-28T01:07:17.187Z,13.32
2022-10-28T01:08:18.985Z,13.32
2022-10-28T01:09:20.721Z,13.29
2022-10-28T01:10:29.003Z,13.26
2022-10-28T01:12:01.610Z,13.20
2022-10-28T01:13:11.602Z,13.13
2022-10-28T01:14:27.677Z,13.14
2022-10-28T01:15:42.609Z,13.07
2022-10-28T01:16:59.637Z,13.12
2022-10-28T01:18:16.452Z,13.14
2022-10-28T01:19:47.108Z,13.08
2022-10-28T01:21:16.995Z,13.11
2022-10-28T01:22:27.281Z,13.11
2022-10-28T01:23:56.280Z,13.13
2022-10-28T01:25:03.763Z,13.15
2022-10-28T01:26:52.993Z,13.16
2022-10-28T01:28:09.143Z,13.16
2022-10-28T01:29:35.275Z,13.14
2022-10-28T01:30:54.537Z,13.11
2022-10-28T01:32:04.130Z,13.08
2022-10-28T01:33:31.012Z,13.11
2022-10-28T01:34:43.998Z,13.07
2022-10-28T01:35:53.003Z,13.14
2022-10-28T01:37:00.661Z,13.13
2022-10-28T01:38:09.934Z,13.13
2022-10-28T01:39:23.769Z,13.11
2022-10-28T01:40:25.354Z,13.11
2022-10-28T01:41:51.905Z,13.08
2022-10-28T01:43:06.544Z,13.07
2022-10-28T01:44:26.537Z,13.07
2022-10-28T01:45:31.160Z,13.10
2022-10-28T01:46:47.621Z,13.10
2022-10-28T01:47:55.555Z,13.12
2022-10-28T01:49:02.969Z,13.10
2022-10-28T01:50:29.732Z,13.04
2022-10-28T01:52:02.030Z,13.04
2022-10-28T01:53:14.626Z,13.03
2022-10-28T01:54:20.914Z,13.01
2022-10-28T01:55:37.651Z,12.95
2022-10-28T01:56:42.725Z,13.01
2022-10-28T01:57:46.495Z,12.99
2022-10-28T01:58:50.154Z,12.97
2022-10-28T01:59:52.980Z,12.94
2022-10-28T02:00:56.061Z,12.97
2022-10-28T02:01:58.000Z,12.84
2022-10-28T02:03:00.064Z,12.92
2022-10-28T02:04:02.951Z,12.91
2022-10-28T02:05:44.542Z,12.85
2022-10-28T02:06:50.439Z,12.88
2022-10-28T02:07:59.200Z,12.84
2022-10-28T02:09:27.913Z,12.82
2022-10-28T02:10:37.618Z,12.77
2022-10-28T02:12:09.002Z,12.76
2022-10-28T02:13:13.952Z,12.74
2022-10-28T02:14:45.942Z,12.71
2022-10-28T02:15:58.590Z,12.62
2022-10-28T02:17:18.555Z,12.62
2022-10-28T02:18:40.325Z,12.55
2022-10-28T02:20:25.076Z,12.52
2022-10-28T02:21:45.244Z,12.51
2022-10-28T02:22:54.121Z,12.49
2022-10-28T02:24:10.934Z,12.42
2022-10-28T02:25:25.984Z,12.43
2022-10-28T02:26:52.739Z,12.43
2022-10-28T02:28:07.895Z,12.44
2022-10-28T02:29:12.560Z,12.42
2022-10-28T02:30:21.277Z,12.39
2022-10-28T02:31:30.360Z,12.36
2022-10-28T02:32:46.424Z,12.25
2022-10-28T02:33:53.331Z,12.31
2022-10-28T02:34:59.036Z,12.30
2022-10-28T02:36:06.047Z,12.28
2022-10-28T02:37:15.965Z,12.26
2022-10-28T02:38:24.319Z,12.20
2022-10-28T02:39:32.647Z,12.17
2022-10-28T02:40:37.614Z,12.16
2022-10-28T02:41:50.730Z,12.17
2022-10-28T02:43:03.575Z,12.18
2022-10-28T02:44:10.594Z,12.19
2022-10-28T02:45:19.179Z,12.13
2022-10-28T02:46:24.692Z,12.15
2022-10-28T02:47:31.986Z,12.11
2022-10-28T02:48:57.192Z,12.14
2022-10-28T02:50:04.017Z,12.12
2022-10-28T02:51:16.938Z,12.10
2022-10-28T02:52:22.048Z,12.12
2022-10-28T02:53:33.514Z,12.11
2022-10-28T02:54:42.972Z,12.06
2022-10-28T02:55:49.487Z,12.09
2022-10-28T02:57:03.357Z,12.07
2022-10-28T02:58:06.125Z,12.00
2022-10-28T02:59:12.779Z,12.00
2022-10-28T03:00:19.334Z,12.03
2022-10-28T03:01:21.131Z,12.03
2022-10-28T03:02:23.584Z,12.03
2022-10-28T03:03:25.413Z,12.03
2022-10-28T03:04:27.146Z,12.03
2022-10-28T03:05:28.836Z,12.01
2022-10-28T03:06:30.619Z,11.95
2022-10-28T03:07:32.385Z,11.96
2022-10-28T03:08:34.116Z,12.00
2022-10-28T03:09:35.782Z,11.98
2022-10-28T03:10:37.464Z,11.98
2022-10-28T03:11:39.234Z,12.04
2022-10-28T03:12:40.892Z,12.00
2022-10-28T03:13:42.624Z,12.06
2022-10-28T03:14:44.365Z,11.98
2022-10-28T03:15:47.557Z,12.00
2022-10-28T03:16:49.287Z,12.02
2022-10-28T03:17:51.250Z,12.05
2022-10-28T03:18:53.745Z,12.02
2022-10-28T03:19:55.409Z,12.02
2022-10-28T03:20:59.010Z,12.04
2022-10-28T03:22:00.927Z,12.05
2022-10-28T03:23:02.650Z,12.00
2022-10-28T03:24:04.566Z,12.00
2022-10-28T03:25:06.438Z,12.00
2022-10-28T03:26:08.105Z,12.01
2022-10-28T03:27:09.784Z,11.99
2022-10-28T03:28:11.457Z,11.98
2022-10-28T03:29:13.187Z,11.95
2022-10-28T03:30:15.005Z,11.86
2022-10-28T03:31:17.422Z,11.89
2022-10-28T03:32:19.149Z,11.90
2022-10-28T03:33:20.857Z,11.90
2022-10-28T03:34:22.495Z,11.88
2022-10-28T03:35:24.537Z,11.90
2022-10-28T03:36:26.205Z,11.86
2022-10-28T03:37:27.861Z,11.90
2022-10-28T03:38:29.631Z,11.86
2022-10-28T03:39:31.318Z,11.80
2022-10-28T03:40:34.333Z,11.69
2022-10-28T03:41:36.114Z,11.68
2022-10-28T03:42:40.403Z,11.74
2022-10-28T03:43:43.153Z,11.65
2022-10-28T03:44:44.791Z,11.75
2022-10-28T03:45:47.837Z,11.79
2022-10-28T03:46:49.506Z,11.80
2022-10-28T03:47:51.445Z,11.75
2022-10-28T03:48:53.504Z,11.79
2022-10-28T03:49:55.436Z,11.84
2022-10-28T03:50:57.089Z,11.86
2022-10-28T03:51:58.744Z,11.84
2022-10-28T03:53:00.678Z,11.86
2022-10-28T03:54:02.394Z,11.86
2022-10-28T03:55:04.420Z,11.83
2022-10-28T03:56:06.285Z,11.89
2022-10-28T03:57:07.953Z,11.88
2022-10-28T03:58:09.625Z,11.86
2022-10-28T03:59:13.162Z,11.84
2022-10-28T04:00:16.845Z,11.83
2022-10-28T04:01:18.634Z,11.83
2022-10-28T04:02:20.453Z,11.84
2022-10-28T04:03:23.582Z,11.84
2022-10-28T04:04:28.438Z,11.75
2022-10-28T04:05:32.475Z,11.66
2022-10-28T04:06:34.139Z,11.65
2022-10-28T04:07:35.886Z,11.71
2022-10-28T04:08:37.734Z,11.71
2022-10-28T04:09:39.413Z,11.73
2022-10-28T04:10:46.245Z,11.73
2022-10-28T04:11:49.534Z,11.73
2022-10-28T04:12:51.317Z,11.73
2022-10-28T04:13:53.090Z,11.73
2022-10-28T04:14:54.851Z,11.71
2022-10-28T04:15:56.773Z,11.68
2022-10-28T04:16:58.657Z,11.71
2022-10-28T04:18:00.444Z,11.70
2022-10-28T04:19:02.458Z,11.66
2022-10-28T04:20:04.562Z,11.57
2022-10-28T04:21:06.346Z,11.54
2022-10-28T04:22:09.248Z,11.60
2022-10-28T04:23:15.574Z,11.53
2022-10-28T04:24:17.280Z,11.52
2022-10-28T04:25:18.936Z,11.57
2022-10-28T04:26:20.655Z,11.57
2022-10-28T04:27:22.307Z,11.61
2022-10-28T04:28:26.728Z,11.63
2022-10-28T04:29:28.429Z,11.59
2022-10-28T04:30:30.098Z,11.60
2022-10-28T04:31:31.774Z,11.64
2022-10-28T04:32:33.499Z,11.61
2022-10-28T04:33:35.177Z,11.58
2022-10-28T04:34:36.817Z,11.64
2022-10-28T04:35:39.402Z,11.62
2022-10-28T04:36:41.094Z,11.58
2022-10-28T04:37:43.000Z,11.62
2022-10-28T04:38:44.676Z,11.70
2022-10-28T04:39:46.318Z,11.59
2022-10-28T04:40:49.305Z,11.67
2022-10-28T04:41:51.014Z,11.66
2022-10-28T04:42:53.014Z,11.66
2022-10-28T04:43:56.419Z,11.67
2022-10-28T04:44:58.146Z,11.66
2022-10-28T04:46:05.932Z,11.65
2022-10-28T04:47:07.907Z,11.51
2022-10-28T04:48:10.730Z,11.60
2022-10-28T04:49:12.442Z,11.51
2022-10-28T04:50:14.351Z,11.56
2022-10-28T04:51:16.010Z,11.47
2022-10-28T04:52:17.706Z,11.42
2022-10-28T04:53:19.405Z,11.36
2022-10-28T04:54:21.050Z,11.34
2022-10-28T04:55:22.718Z,11.35
2022-10-28T04:56:24.414Z,11.35
2022-10-28T04:57:26.158Z,11.35
2022-10-28T04:58:27.834Z,11.24
2022-10-28T04:59:29.488Z,11.17
2022-10-28T05:00:31.697Z,11.07
2022-10-28T05:01:33.563Z,10.98
2022-10-28T05:02:35.314Z,10.93
2022-10-28T05:03:37.249Z,10.75
2022-10-28T05:04:38.941Z,10.93
2022-10-28T05:05:40.996Z,10.99
2022-10-28T05:06:42.734Z,11.01
2022-10-28T05:07:44.652Z,11.05
2022-10-28T05:08:46.354Z,11.06
2022-10-28T05:09:48.048Z,11.08
2022-10-28T05:10:51.222Z,11.08
2022-10-28T05:11:52.897Z,11.11
2022-10-28T05:12:54.556Z,11.12
2022-10-28T05:13:56.331Z,11.16
2022-10-28T05:14:57.992Z,11.16
2022-10-28T05:15:59.694Z,11.23
2022-10-28T05:17:01.445Z,11.20
2022-10-28T05:18:03.177Z,11.18
2022-10-28T05:19:04.948Z,11.12
2022-10-28T05:20:07.714Z,11.06
2022-10-28T05:21:09.415Z,10.97
2022-10-28T05:22:11.163Z,11.01
2022-10-28T05:23:13.251Z,10.91
2022-10-28T05:24:14.945Z,10.87
2022-10-28T05:25:17.367Z,10.94
2022-10-28T05:26:19.388Z,10.95
2022-10-28T05:27:21.179Z,10.95
2022-10-28T05:28:22.890Z,10.90
2022-10-28T05:29:24.576Z,10.83
2022-10-28T05:30:27.257Z,10.76
2022-10-28T05:31:28.904Z,10.80
2022-10-28T05:32:30.585Z,10.88
2022-10-28T05:33:33.740Z,10.98
2022-10-28T05:34:36.295Z,11.08
2022-10-28T05:35:38.947Z,11.11
2022-10-28T05:36:40.588Z,11.20
2022-10-28T05:37:43.606Z,11.23
2022-10-28T05:38:45.629Z,11.23
2022-10-28T05:39:47.447Z,11.26
2022-10-28T05:40:49.225Z,11.33
2022-10-28T05:41:50.863Z,11.40
2022-10-28T05:42:52.824Z,11.44
2022-10-28T05:43:54.770Z,11.53
2022-10-28T05:44:56.418Z,11.61
2022-10-28T05:45:58.418Z,11.67
2022-10-28T05:47:00.130Z,11.76
2022-10-28T05:48:02.392Z,11.80
2022-10-28T05:49:04.371Z,11.84
2022-10-28T05:50:06.400Z,11.84
2022-10-28T05:51:08.064Z,11.93
2022-10-28T05:52:09.768Z,11.99
2022-10-28T05:53:11.486Z,12.00
2022-10-28T05:54:13.333Z,12.08
2022-10-28T05:55:15.296Z,12.14
2022-10-28T05:56:20.076Z,12.22
2022-10-28T05:57:21.747Z,12.31
2022-10-28T05:58:23.438Z,12.36
2022-10-28T05:59:25.105Z,12.36
2022-10-28T06:00:27.390Z,12.47
2022-10-28T06:01:29.339Z,12.52
2022-10-28T06:02:31.050Z,12.59
2022-10-28T06:03:32.814Z,12.62
2022-10-28T06:04:34.570Z,12.68
2022-10-28T06:05:41.965Z,12.71
2022-10-28T06:06:43.672Z,12.76
2022-10-28T06:07:45.349Z,12.82
2022-10-28T06:08:47.053Z,12.93
2022-10-28T06:09:50.829Z,12.96
2022-10-28T06:10:55.686Z,13.02
2022-10-28T06:11:57.340Z,13.10
2022-10-28T06:12:59.041Z,13.09
2022-10-28T06:14:00.939Z,13.20
2022-10-28T06:15:03.418Z,13.26
2022-10-28T06:16:05.316Z,13.30
2022-10-28T06:17:07.021Z,13.35
2022-10-28T06:18:08.729Z,13.42
2022-10-28T06:19:10.385Z,13.49
2022-10-28T06:20:12.055Z,13.49
2022-10-28T06:21:13.763Z,13.57
2022-10-28T06:22:15.448Z,13.59
2022-10-28T06:23:17.171Z,13.67
2022-10-28T06:24:18.841Z,13.70
2022-10-28T06:25:21.926Z,13.79
2022-10-28T06:26:23.574Z,13.80
2022-10-28T06:27:25.247Z,13.79
2022-10-28T06:28:27.310Z,13.84
2022-10-28T06:29:30.739Z,13.83
2022-10-28T06:30:32.388Z,13.97
2022-10-28T06:31:34.135Z,13.99
2022-10-28T06:32:35.820Z,14.08
2022-10-28T06:33:38.010Z,14.09
2022-10-28T06:34:39.713Z,14.02
2022-10-28T06:35:41.792Z,14.26
2022-10-28T06:36:43.445Z,14.46
2022-10-28T06:37:45.348Z,14.63
2022-10-28T06:38:47.047Z,14.83
2022-10-28T06:39:52.206Z,15.06
2022-10-28T06:40:57.557Z,15.35
2022-10-28T06:41:59.259Z,15.59
2022-10-28T06:43:03.349Z,15.93
2022-10-28T06:44:05.200Z,16.27
2022-10-28T06:45:07.247Z,16.64
2022-10-28T06:46:08.905Z,17.08
2022-10-28T06:47:12.379Z,17.35
2022-10-28T06:48:14.442Z,17.73
2022-10-28T06:49:16.740Z,18.10
2022-10-28T06:50:18.788Z,18.41
2022-10-28T06:51:20.831Z,18.75
2022-10-28T06:52:22.506Z,19.03
2022-10-28T06:53:25.424Z,19.41
2022-10-28T06:54:27.343Z,19.71
2022-10-28T06:55:29.207Z,19.97
2022-10-28T06:56:30.898Z,20.28
2022-10-28T06:57:32.551Z,20.67
2022-10-28T06:58:34.211Z,21.08
2022-10-28T06:59:36.092Z,21.37
2022-10-28T07:00:37.774Z,21.64
2022-10-28T07:01:39.578Z,21.98
2022-10-28T07:02:44.266Z,22.25
2022-10-28T07:03:47.782Z,22.58
2022-10-28T07:04:49.436Z,22.83
2022-10-28T07:05:51.842Z,23.06
2022-10-28T07:06:57.663Z,23.46
2022-10-28T07:07:59.400Z,23.74
2022-10-28T07:09:01.099Z,23.93
2022-10-28T07:10:06.152Z,24.13
2022-10-28T07:11:08.077Z,24.51
2022-10-28T07:12:09.782Z,24.76
2022-10-28T07:13:11.566Z,24.89
2022-10-28T07:14:13.216Z,25.08
2022-10-28T07:15:14.864Z,25.26
2022-10-28T07:16:16.507Z,25.52
2022-10-28T07:17:18.207Z,25.74
2022-10-28T07:18:20.431Z,26.01
2022-10-28T07:19:22.788Z,26.17
2022-10-28T07:20:26.323Z,26.36
2022-10-28T07:21:29.871Z,26.57
2022-10-28T07:22:31.544Z,26.76
2022-10-28T07:23:34.348Z,26.97
2022-10-28T07:24:36.036Z,27.12
2022-10-28T07:25:37.733Z,27.23
2022-10-28T07:26:39.432Z,27.36
2022-10-28T07:27:41.111Z,27.51
2022-10-28T07:28:43.246Z,27.71
2022-10-28T07:29:44.926Z,27.89
2022-10-28T07:30:46.693Z,28.03
2022-10-28T07:31:48.330Z,28.14
2022-10-28T07:32:50.039Z,28.34
2022-10-28T07:33:53.360Z,28.45
2022-10-28T07:34:55.001Z,28.56
2022-10-28T07:35:56.751Z,28.65
2022-10-28T07:36:58.507Z,28.81
2022-10-28T07:38:00.299Z,29.10
2022-10-28T07:39:04.542Z,29.34
2022-10-28T07:40:07.340Z,29.43
2022-10-28T07:41:10.156Z,29.53
2022-10-28T07:42:11.842Z,29.69
2022-10-28T07:43:13.784Z,29.82
2022-10-28T07:44:15.562Z,29.95
2022-10-28T07:45:18.203Z,30.15
2022-10-28T07:46:20.192Z,30.23
2022-10-28T07:47:22.340Z,30.36
2022-10-28T07:48:24.545Z,30.23
2022-10-28T07:49:26.307Z,30.20
2022-10-28T07:50:28.052Z,30.39
2022-10-28T07:51:29.918Z,30.55
2022-10-28T07:52:31.796Z,30.68
2022-10-28T07:53:34.419Z,30.77
2022-10-28T07:54:36.074Z,30.84
2022-10-28T07:55:37.829Z,30.89
2022-10-28T07:56:39.509Z,30.97
2022-10-28T07:57:41.198Z,31.16
2022-10-28T07:58:44.865Z,31.29
2022-10-28T07:59:46.933Z,31.27
2022-10-28T08:00:48.869Z,31.28
2022-10-28T08:01:50.673Z,31.32
2022-10-28T08:02:52.380Z,31.36
2022-10-28T08:03:54.160Z,31.52
2022-10-28T08:04:56.925Z,31.64
2022-10-28T08:06:07.685Z,31.74
2022-10-28T08:07:09.363Z,31.80
2022-10-28T08:08:11.079Z,31.97
2022-10-28T08:09:12.779Z,32.00
2022-10-28T08:10:14.511Z,32.02
2022-10-28T08:11:22.725Z,32.03
2022-10-28T08:12:24.564Z,32.13
2022-10-28T08:13:26.220Z,32.21
2022-10-28T08:14:27.870Z,32.22
2022-10-28T08:15:29.951Z,32.26
2022-10-28T08:16:31.663Z,32.33
2022-10-28T08:17:33.403Z,32.30
2022-10-28T08:18:36.399Z,32.34
2022-10-28T08:19:38.100Z,32.33
2022-10-28T08:20:39.734Z,32.27
2022-10-28T08:21:41.400Z,32.47
2022-10-28T08:22:43.143Z,32.53
2022-10-28T08:23:47.805Z,32.61
2022-10-28T08:24:49.473Z,32.63
2022-10-28T08:25:52.837Z,32.69
2022-10-28T08:26:54.479Z,32.83
2022-10-28T08:27:57.655Z,32.82
2022-10-28T08:29:01.618Z,32.86
2022-10-28T08:30:03.751Z,32.94
2022-10-28T08:31:09.566Z,32.89
2022-10-28T08:32:11.490Z,32.97
2022-10-28T08:33:14.355Z,33.08
2022-10-28T08:34:16.219Z,33.21
2022-10-28T08:35:17.943Z,33.30
2022-10-28T08:36:19.688Z,33.33
2022-10-28T08:37:21.457Z,33.41
2022-10-28T08:38:23.169Z,33.42
2022-10-28T08:39:24.893Z,33.34
2022-10-28T08:40:45.769Z,33.45
2022-10-28T08:41:59.999Z,33.54
2022-10-28T08:43:14.780Z,33.77
2022-10-28T08:44:53.628Z,33.89
2022-10-28T08:46:20.703Z,33.92
2022-10-28T08:47:25.048Z,33.89
2022-10-28T08:48:33.665Z,33.99
2022-10-28T08:49:39.426Z,34.04
2022-10-28T08:50:52.211Z,33.86
2022-10-28T08:51:59.588Z,33.89
2022-10-28T08:53:28.328Z,33.91
2022-10-28T08:54:37.508Z,33.91
2022-10-28T08:55:50.238Z,33.90
2022-10-28T08:56:55.069Z,33.81
2022-10-28T08:58:22.326Z,33.89
2022-10-28T08:59:37.860Z,33.92
2022-10-28T09:00:40.713Z,33.99
2022-10-28T09:01:51.354Z,33.99
2022-10-28T09:03:22.510Z,34.02
2022-10-28T09:04:40.401Z,34.18
2022-10-28T09:05:48.005Z,34.20
2022-10-28T09:06:49.727Z,34.20
2022-10-28T09:07:52.055Z,34.22
2022-10-28T09:08:54.383Z,34.23
2022-10-28T09:09:56.314Z,34.34
2022-10-28T09:11:00.567Z,34.47
2022-10-28T09:12:17.334Z,34.40
2022-10-28T09:13:29.987Z,34.43
2022-10-28T09:14:47.971Z,34.54
2022-10-28T09:16:09.391Z,34.36
2022-10-28T09:17:26.312Z,34.38
2022-10-28T09:18:48.154Z,34.37
2022-10-28T09:19:49.763Z,34.43
2022-10-28T09:21:04.977Z,34.30
2022-10-28T09:22:31.481Z,34.18
2022-10-28T09:23:37.570Z,34.15
2022-10-28T09:24:53.069Z,34.20
2022-10-28T09:26:06.815Z,34.12
2022-10-28T09:27:23.341Z,34.00
2022-10-28T09:28:44.720Z,33.98
2022-10-28T09:30:11.807Z,34.05
2022-10-28T09:31:28.976Z,34.15
2022-10-28T09:32:36.416Z,34.21
2022-10-28T09:33:42.181Z,34.18
2022-10-28T09:35:06.469Z,34.23
2022-10-28T09:36:17.201Z,34.18
2022-10-28T09:37:24.379Z,34.15
2022-10-28T09:38:26.051Z,34.03
2022-10-28T09:39:31.624Z,34.18
2022-10-28T09:40:36.767Z,34.21
2022-10-28T09:41:41.540Z,34.14
2022-10-28T09:42:58.049Z,34.22
2022-10-28T09:44:25.280Z,34.35
2022-10-28T09:45:31.558Z,34.26
2022-10-28T09:46:37.019Z,34.05
2022-10-28T09:47:46.079Z,34.08
2022-10-28T09:48:59.904Z,34.05
2022-10-28T09:50:08.506Z,34.08
2022-10-28T09:51:21.315Z,34.14
2022-10-28T09:52:28.574Z,34.16
2022-10-28T09:53:42.202Z,34.23
2022-10-28T09:54:50.623Z,34.13
2022-10-28T09:55:52.493Z,33.97
2022-10-28T09:56:55.071Z,34.01
2022-10-28T09:57:57.088Z,34.05
2022-10-28T09:59:03.157Z,34.15
2022-10-28T10:00:05.719Z,34.27
2022-10-28T10:01:07.433Z,34.33
2022-10-28T10:02:27.498Z,34.20
2022-10-28T10:03:29.475Z,34.12
2022-10-28T10:04:31.526Z,34.17
2022-10-28T10:05:38.036Z,34.18
2022-10-28T10:06:42.909Z,34.00
2022-10-28T10:07:53.921Z,34.04
2022-10-28T10:08:57.133Z,34.15
2022-10-28T10:11:12.088Z,34.28
2022-10-28T10:12:14.508Z,34.25
2022-10-28T10:13:21.184Z,34.37
2022-10-28T10:14:29.108Z,34.39
2022-10-28T10:15:36.503Z,34.38
2022-10-28T10:16:43.634Z,34.22
2022-10-28T10:17:47.290Z,34.24
2022-10-28T10:18:53.332Z,34.25
2022-10-28T10:20:00.242Z,34.24
2022-10-28T10:21:02.841Z,34.24
2022-10-28T10:22:04.549Z,34.44
2022-10-28T10:23:32.026Z,34.45
2022-10-28T10:24:36.203Z,34.40
2022-10-28T10:25:37.908Z,34.27
2022-10-28T10:26:39.605Z,34.15
2022-10-28T10:27:41.338Z,33.51
2022-10-28T10:28:48.940Z,33.47
2022-10-28T10:29:53.039Z,33.57
2022-10-28T10:31:00.079Z,33.57
2022-10-28T10:32:19.257Z,33.54
2022-10-28T10:33:51.315Z,33.29
2022-10-28T10:35:02.040Z,33.17
2022-10-28T10:36:09.721Z,32.96
2022-10-28T10:37:21.359Z,32.42
2022-10-28T10:38:23.121Z,32.20
2022-10-28T10:39:39.997Z,31.87
2022-10-28T10:40:49.674Z,31.30
2022-10-28T10:41:51.348Z,31.26
2022-10-28T10:43:12.908Z,31.38
2022-10-28T10:44:21.438Z,31.16
2022-10-28T10:45:27.696Z,31.25
2022-10-28T10:46:29.483Z,31.37
2022-10-28T10:47:31.222Z,31.38
2022-10-28T10:48:36.628Z,31.35
2022-10-28T10:49:38.495Z,30.70
2022-10-28T10:50:45.565Z,30.75
2022-10-28T10:51:57.184Z,30.83
2022-10-28T10:53:01.617Z,30.79
2022-10-28T10:54:03.627Z,30.79
2022-10-28T10:55:38.202Z,30.75
2022-10-28T10:56:40.110Z,30.81
2022-10-28T10:57:46.860Z,30.72
2022-10-28T10:58:54.415Z,30.81
2022-10-28T10:59:57.404Z,30.71
2022-10-28T11:01:02.977Z,30.51
2022-10-28T11:02:39.876Z,30.23
2022-10-28T11:03:54.252Z,29.68
2022-10-28T11:05:00.015Z,29.66
2022-10-28T11:06:23.452Z,29.73
2022-10-28T11:07:25.996Z,28.94
2022-10-28T11:08:36.863Z,28.63
2022-10-28T11:09:40.273Z,27.99
2022-10-28T11:10:41.941Z,27.25
2022-10-28T11:11:44.493Z,26.72
2022-10-28T11:12:55.612Z,26.41
2022-10-28T11:14:09.769Z,26.44
2022-10-28T11:15:17.405Z,26.35
2022-10-28T11:16:24.936Z,26.18
2022-10-28T11:18:43.923Z,25.70
2022-10-28T11:19:45.613Z,25.54
2022-10-28T11:21:13.281Z,25.41
2022-10-28T11:22:37.728Z,24.86
2022-10-28T11:24:03.856Z,24.70
2022-10-28T11:25:46.010Z,24.66
2022-10-28T11:27:01.469Z,24.78
2022-10-28T11:28:33.722Z,24.63
2022-10-28T11:29:35.440Z,24.64
2022-10-28T11:30:50.845Z,24.55
2022-10-28T11:32:13.773Z,24.46
2022-10-28T11:33:35.070Z,24.46
2022-10-28T11:35:07.200Z,24.42
2022-10-28T11:36:25.672Z,24.33
2022-10-28T11:37:45.448Z,24.42
2022-10-28T11:39:18.282Z,24.31
2022-10-28T11:40:25.572Z,24.26
2022-10-28T11:41:54.874Z,24.16
2022-10-28T11:43:19.999Z,24.01
2022-10-28T11:44:27.769Z,23.97
2022-10-28T11:45:39.125Z,23.95
2022-10-28T11:47:04.217Z,23.96
2022-10-28T11:48:22.085Z,24.00
2022-10-28T11:49:59.236Z,23.94
2022-10-28T11:51:32.981Z,23.82
2022-10-28T11:53:06.903Z,23.73
2022-10-28T11:54:39.717Z,23.63
2022-10-28T11:55:41.348Z,23.66
2022-10-28T11:56:48.419Z,23.67
2022-10-28T11:58:06.351Z,23.39
2022-10-28T11:59:32.607Z,22.94
2022-10-28T12:00:40.355Z,22.70
2022-10-28T12:01:50.651Z,22.72
2022-10-28T12:03:21.396Z,22.66
2022-10-28T12:04:31.382Z,22.62
2022-10-28T12:06:03.189Z,22.62
2022-10-28T12:07:26.634Z,22.42
2022-10-28T12:08:59.046Z,22.50
2022-10-28T12:10:15.654Z,22.68
2022-10-28T12:11:36.033Z,22.78
2022-10-28T12:13:05.783Z,22.68
2022-10-28T12:14:22.401Z,22.33
2022-10-28T12:15:39.211Z,22.27
2022-10-28T12:16:45.191Z,22.29
2022-10-28T12:18:08.074Z,22.34
2022-10-28T12:19:43.567Z,22.38
2022-10-28T12:21:09.795Z,22.48
2022-10-28T12:22:33.870Z,22.55
2022-10-28T12:23:39.229Z,22.60
2022-10-28T12:24:44.826Z,22.61
2022-10-28T12:25:51.722Z,22.65
2022-10-28T12:27:00.244Z,22.70
2022-10-28T12:28:07.668Z,22.63
2022-10-28T12:29:28.482Z,22.60
2022-10-28T12:30:33.243Z,22.73
2022-10-28T12:31:44.561Z,22.79
2022-10-28T12:32:48.627Z,22.82
2022-10-28T12:33:55.808Z,22.81
2022-10-28T12:35:19.698Z,22.89
2022-10-28T12:36:32.109Z,22.88
2022-10-28T12:37:44.765Z,22.83
2022-10-28T12:39:00.205Z,22.86
2022-10-28T12:40:17.184Z,22.89
2022-10-28T12:41:43.152Z,22.91
2022-10-28T12:42:58.604Z,22.78
2022-10-28T12:44:11.172Z,22.80
2022-10-28T12:45:17.067Z,22.76
2022-10-28T12:46:37.574Z,22.55
2022-10-28T12:47:46.512Z,22.46
2022-10-28T12:48:54.569Z,22.50
2022-10-28T12:50:08.217Z,22.49
2022-10-28T12:51:18.574Z,22.44
2022-10-28T12:52:26.231Z,22.47
2022-10-28T12:53:41.281Z,22.21
2022-10-28T12:56:37.555Z,22.07
2022-10-28T12:57:44.188Z,22.06
2022-10-28T12:59:06.059Z,22.08
2022-10-28T13:00:13.844Z,22.07
2022-10-28T13:01:21.319Z,21.96
2022-10-28T13:02:31.476Z,21.90
2022-10-28T13:03:33.223Z,21.86
2022-10-28T13:04:37.251Z,21.77
2022-10-28T13:05:51.290Z,21.79
2022-10-28T13:07:07.868Z,21.83
2022-10-28T13:08:30.425Z,21.85
2022-10-28T13:09:55.206Z,21.92
2022-10-28T13:11:27.790Z,21.98
2022-10-28T13:12:35.215Z,22.01
2022-10-28T13:13:45.645Z,22.01
2022-10-28T13:15:02.555Z,21.87
2022-10-28T13:16:31.715Z,21.56
2022-10-28T13:17:59.108Z,21.57
2022-10-28T13:19:19.572Z,21.30
2022-10-28T13:20:58.370Z,21.33
2022-10-28T13:22:05.714Z,21.36
2022-10-28T13:23:59.507Z,21.39
2022-10-28T13:25:31.333Z,21.40
2022-10-28T13:26:37.944Z,21.30
2022-10-28T13:27:40.147Z,21.24
2022-10-28T13:28:47.869Z,21.26
2022-10-28T13:29:53.731Z,21.18
2022-10-28T13:31:01.163Z,21.04
2022-10-28T13:32:03.074Z,20.99
2022-10-28T13:33:09.769Z,21.01
2022-10-28T13:34:14.493Z,21.05
2022-10-28T13:35:26.563Z,21.18
2022-10-28T13:36:36.730Z,21.32
2022-10-28T13:37:39.706Z,21.39
2022-10-28T13:38:42.014Z,21.47
2022-10-28T13:39:45.226Z,21.54
2022-10-28T13:40:46.877Z,21.61
2022-10-28T13:41:49.116Z,21.55
2022-10-28T13:42:50.898Z,21.54
2022-10-28T13:43:54.496Z,21.51
2022-10-28T13:45:06.639Z,21.34
2022-10-28T13:46:08.339Z,21.07
2022-10-28T13:47:28.098Z,21.20
2022-10-28T13:48:29.806Z,21.33
2022-10-28T13:49:35.579Z,21.45
2022-10-28T13:50:37.567Z,21.42
2022-10-28T13:51:46.922Z,21.43
2022-10-28T13:53:27.112Z,21.45
2022-10-28T13:54:53.372Z,21.20
2022-10-28T13:55:58.488Z,21.08
2022-10-28T13:57:08.936Z,21.12
2022-10-28T13:58:23.312Z,21.13
2022-10-28T13:59:29.451Z,21.03
2022-10-28T14:00:31.046Z,21.04
2022-10-28T14:01:36.909Z,21.07
2022-10-28T14:02:42.374Z,20.98
2022-10-28T14:03:52.397Z,20.92
2022-10-28T14:04:56.664Z,20.96
2022-10-28T14:06:00.566Z,20.96
2022-10-28T14:07:12.829Z,20.83
2022-10-28T14:08:29.809Z,20.89
2022-10-28T14:09:35.278Z,20.89
2022-10-28T14:10:40.293Z,20.87
2022-10-28T14:11:42.559Z,20.79
2022-10-28T14:13:09.426Z,20.75
2022-10-28T14:14:16.791Z,20.77
2022-10-28T14:15:25.013Z,20.64
2022-10-28T14:16:40.367Z,20.61
2022-10-28T14:17:48.114Z,20.60
2022-10-28T14:19:24.132Z,20.58
2022-10-28T14:20:36.552Z,20.50
2022-10-28T14:21:45.262Z,20.46
2022-10-28T14:22:47.583Z,20.45
2022-10-28T14:23:49.225Z,20.43
2022-10-28T14:24:50.916Z,20.37
2022-10-28T14:25:54.718Z,20.47
2022-10-28T14:27:05.586Z,20.47
2022-10-28T14:28:32.092Z,20.35
2022-10-28T14:29:44.529Z,20.32
2022-10-28T14:31:11.722Z,20.29
2022-10-28T14:32:31.710Z,20.24
2022-10-28T14:33:34.209Z,20.17
2022-10-28T14:34:42.037Z,20.14
2022-10-28T14:35:47.197Z,20.18